KICL/ICL METAR and TAF weather

Enter ICAO airport designator
Station Type Date Time Source
KICL METAR 2021/05/17 21:55 UTC NOAA

KICL 172155Z AUTO 10011G18KT 10SM SCT024 SCT029 OVC038 21/17 A2997 RMK AO2


Station Type Date Time Source
KICL Decoded METAR 2021/05/17 21:55 UTC NOAA

Clarinda, IA, United States (KICL) 40-43N 095-02W
May 17, 2021 - 05:55 PM EDT / 2021.05.17 2155 UTC
Wind: from the E (100 degrees) at 13 MPH (11 KT) gusting to 21 MPH (18 KT):0
Visibility: 10 mile(s):0
Sky conditions: overcast
Temperature: 69 F (21 C)
Dew Point: 62 F (17 C)
Relative Humidity: 77%
Pressure (altimeter): 29.97 in. Hg (1014 hPa)
ob: KICL 172155Z AUTO 10011G18KT 10SM SCT024 SCT029 OVC038 21/17 A2997 RMK AO2
cycle: 22

Station Type Date Time Source
KICL TAF UTC NOAA

Error!

Example: see airport list